createdAt,value
2019-05-17T00:00:37.448Z,93798.17
2019-05-17T00:03:06.952Z,93793.84
2019-05-17T00:05:37.486Z,93789.53
2019-05-17T00:08:07.658Z,93795.92
2019-05-17T00:10:37.626Z,93793.34
2019-05-17T00:13:07.631Z,93794.17
2019-05-17T00:15:37.143Z,93795.58
2019-05-17T00:18:06.707Z,93790.01
2019-05-17T00:20:37.405Z,93792.49
2019-05-17T00:23:07.071Z,93779.25
2019-05-17T00:25:36.813Z,93777.64
2019-05-17T00:28:07.247Z,93778.66
2019-05-17T00:30:37.323Z,93780.12
2019-05-17T00:33:07.921Z,93770.54
2019-05-17T00:35:37.591Z,93782.88
2019-05-17T00:38:06.801Z,93778.39
2019-05-17T00:40:36.631Z,93784.25
2019-05-17T00:43:06.743Z,93787.31
2019-05-17T00:45:37.607Z,93792.33
2019-05-17T00:48:06.649Z,93787.11
2019-05-17T00:50:37.789Z,93781.48
2019-05-17T00:53:07.233Z,93780.33
2019-05-17T00:55:36.472Z,93782.12
2019-05-17T00:58:06.845Z,93781.64
2019-05-17T01:00:37.706Z,93784.38
2019-05-17T01:03:07.097Z,93781.75
2019-05-17T01:05:36.954Z,93782.12
2019-05-17T01:08:07.336Z,93781.13
2019-05-17T01:10:36.877Z,93779.80
2019-05-17T01:13:06.797Z,93781.45
2019-05-17T01:15:36.992Z,93783.48
2019-05-17T01:18:07.124Z,93775.77
2019-05-17T01:20:37.184Z,93789.18
2019-05-17T01:23:07.535Z,93784.92
2019-05-17T01:25:37.284Z,93783.70
2019-05-17T01:28:07.498Z,93781.45
2019-05-17T01:30:37.439Z,93775.91
2019-05-17T01:33:07.015Z,93775.79
2019-05-17T01:38:42.519Z,93783.73
2019-05-17T01:41:11.222Z,93787.88
2019-05-17T01:43:39.845Z,93780.10
2019-05-17T01:46:08.574Z,93777.78
2019-05-17T01:48:39.639Z,93776.64
2019-05-17T01:51:08.350Z,93771.50
2019-05-17T01:53:37.076Z,93768.95
2019-05-17T01:56:06.392Z,93760.30
2019-05-17T01:58:36.530Z,93769.72
2019-05-17T02:01:07.600Z,93760.59
2019-05-17T02:03:37.483Z,93762.50
2019-05-17T02:06:07.469Z,93768.06
2019-05-17T02:08:37.267Z,93769.28
2019-05-17T02:11:06.788Z,93763.39
2019-05-17T02:13:37.616Z,93762.20
2019-05-17T02:16:07.175Z,93762.81
2019-05-17T02:18:37.213Z,93763.67
2019-05-17T02:21:06.668Z,93767.50
2019-05-17T02:23:37.189Z,93764.98
2019-05-17T02:26:06.800Z,93767.40
2019-05-17T02:28:35.483Z,93761.73
2019-05-17T02:31:04.823Z,93761.48
2019-05-17T02:33:34.014Z,93766.93
2019-05-17T02:36:03.078Z,93764.98
2019-05-17T02:38:33.307Z,93756.48
2019-05-17T02:41:03.404Z,93758.31
2019-05-17T02:43:33.466Z,93764.84
2019-05-17T02:46:03.809Z,93770.51
2019-05-17T02:48:33.880Z,93765.76
2019-05-17T02:51:03.897Z,93759.37
2019-05-17T02:53:33.676Z,93769.31
2019-05-17T02:56:03.355Z,93768.61
2019-05-17T02:58:33.105Z,93761.20
2019-05-17T03:01:03.553Z,93764.91
2019-05-17T03:03:32.797Z,93770.28
2019-05-17T03:06:03.131Z,93766.83
2019-05-17T03:08:34.031Z,93763.84
2019-05-17T03:11:03.238Z,93767.93
2019-05-17T03:13:33.035Z,93771.12
2019-05-17T03:16:03.364Z,93772.46
2019-05-17T03:18:33.495Z,93766.00
2019-05-17T03:21:03.893Z,93767.15
2019-05-17T03:23:33.076Z,93763.07
2019-05-17T03:26:03.597Z,93764.95
2019-05-17T03:28:33.681Z,93756.23
2019-05-17T03:31:07.577Z,93755.35
2019-05-17T03:33:36.280Z,93753.20
2019-05-17T03:36:07.006Z,93753.16
2019-05-17T03:38:35.850Z,93747.27
2019-05-17T03:41:17.184Z,93758.06
2019-05-17T03:43:35.496Z,93760.03
2019-05-17T03:46:04.575Z,93768.47
2019-05-17T03:48:33.649Z,93762.83
2019-05-17T03:51:04.888Z,93774.26
2019-05-17T03:53:33.734Z,93779.59
2019-05-17T03:56:03.091Z,93774.57
2019-05-17T03:58:33.334Z,93782.47
2019-05-17T04:01:04.163Z,93782.89
2019-05-17T04:03:35.458Z,93787.78
2019-05-17T04:06:03.798Z,93782.82
2019-05-17T04:08:33.558Z,93783.31
2019-05-17T04:11:17.618Z,93787.58
2019-05-17T04:13:33.901Z,93786.42
2019-05-17T04:16:07.897Z,93784.11
2019-05-17T04:18:33.717Z,93791.63
2019-05-17T04:21:03.487Z,93791.00
2019-05-17T04:23:34.000Z,93786.86
2019-05-17T04:26:04.189Z,93789.33
2019-05-17T04:28:33.709Z,93791.27
2019-05-17T04:31:03.073Z,93790.14
2019-05-17T04:33:33.653Z,93790.31
2019-05-17T04:36:02.860Z,93787.84
2019-05-17T04:38:33.133Z,93790.50
2019-05-17T04:41:03.155Z,93780.92
2019-05-17T04:43:33.326Z,93777.56
2019-05-17T04:46:03.011Z,93773.77
2019-05-17T04:48:32.665Z,93782.09
2019-05-17T04:51:02.803Z,93782.68
2019-05-17T04:53:32.884Z,93786.95
2019-05-17T04:56:03.137Z,93784.27
2019-05-17T04:58:33.381Z,93791.83
2019-05-17T05:01:04.133Z,93794.33
2019-05-17T05:03:32.936Z,93798.66
2019-05-17T05:06:03.073Z,93792.42
2019-05-17T05:08:32.983Z,93794.25
2019-05-17T05:11:03.942Z,93798.55
2019-05-17T05:13:33.281Z,93800.52
2019-05-17T05:16:03.243Z,93796.52
2019-05-17T05:18:32.827Z,93799.59
2019-05-17T05:21:03.458Z,93794.91
2019-05-17T05:23:32.121Z,93803.22
2019-05-17T05:26:03.028Z,93802.54
2019-05-17T05:28:31.715Z,93801.10
2019-05-17T05:31:01.890Z,93805.34
2019-05-17T05:33:33.298Z,93805.97
2019-05-17T05:36:02.194Z,93802.93
2019-05-17T05:38:32.053Z,93804.20
2019-05-17T05:41:01.826Z,93798.36
2019-05-17T05:43:32.714Z,93795.95
2019-05-17T05:46:02.591Z,93804.28
2019-05-17T05:48:32.687Z,93800.14
2019-05-17T05:51:03.672Z,93799.13
2019-05-17T05:53:32.528Z,93802.16
2019-05-17T05:56:03.135Z,93800.92
2019-05-17T05:58:32.324Z,93797.95
2019-05-17T06:01:02.338Z,93793.29
2019-05-17T06:03:32.061Z,93796.41
2019-05-17T06:06:01.796Z,93800.38
2019-05-17T06:08:32.184Z,93797.78
2019-05-17T06:11:02.274Z,93800.05
2019-05-17T06:13:32.605Z,93800.42
2019-05-17T06:16:02.670Z,93803.23
2019-05-17T06:18:31.929Z,93804.83
2019-05-17T06:21:02.987Z,93807.88
2019-05-17T06:23:31.577Z,93807.77
2019-05-17T06:26:04.258Z,93804.37
2019-05-17T06:28:31.905Z,93808.30
2019-05-17T06:31:02.836Z,93812.14
2019-05-17T06:33:34.595Z,93807.81
2019-05-17T06:36:02.822Z,93809.94
2019-05-17T06:38:32.902Z,93807.82
2019-05-17T06:41:01.834Z,93815.45
2019-05-17T06:43:32.342Z,93815.53
2019-05-17T06:46:01.741Z,93819.56
2019-05-17T06:48:31.771Z,93817.41
2019-05-17T06:51:02.609Z,93817.30
2019-05-17T06:53:32.426Z,93814.88
2019-05-17T06:56:02.677Z,93819.39
2019-05-17T06:58:31.710Z,93823.99
2019-05-17T07:01:00.714Z,93826.36
2019-05-17T07:03:29.581Z,93821.84
2019-05-17T07:05:59.844Z,93817.67
2019-05-17T07:08:29.587Z,93823.93
2019-05-17T07:10:59.758Z,93835.34
2019-05-17T07:13:30.103Z,93821.79
2019-05-17T07:15:59.735Z,93822.63
2019-05-17T07:18:29.957Z,93818.86
2019-05-17T07:21:02.841Z,93815.95
2019-05-17T07:23:30.299Z,93816.81
2019-05-17T07:25:59.891Z,93809.69
2019-05-17T07:28:30.174Z,93804.17
2019-05-17T07:30:59.666Z,93806.73
2019-05-17T07:33:30.612Z,93804.99
2019-05-17T07:35:59.567Z,93799.44
2019-05-17T07:38:30.293Z,93804.92
2019-05-17T07:40:59.532Z,93799.03
2019-05-17T07:43:29.809Z,93804.45
2019-05-17T07:46:00.416Z,93805.80
2019-05-17T07:48:31.394Z,93808.45
2019-05-17T07:50:59.695Z,93805.59
2019-05-17T07:53:30.606Z,93801.95
2019-05-17T07:55:59.587Z,93809.44
2019-05-17T07:58:29.974Z,93810.74
2019-05-17T08:01:01.569Z,93812.91
2019-05-17T08:03:29.926Z,93817.70
2019-05-17T08:05:59.952Z,93815.96
2019-05-17T08:08:31.171Z,93814.07
2019-05-17T08:11:00.401Z,93807.88
2019-05-17T08:13:31.335Z,93809.39
2019-05-17T08:15:59.683Z,93801.49
2019-05-17T08:18:29.614Z,93798.89
2019-05-17T08:20:59.756Z,93793.50
2019-05-17T08:23:30.374Z,93796.84
2019-05-17T08:26:00.511Z,93797.94
2019-05-17T08:28:31.256Z,93796.37
2019-05-17T08:31:01.105Z,93790.24
2019-05-17T08:33:30.304Z,93786.06
2019-05-17T08:35:59.789Z,93780.78
2019-05-17T08:38:30.497Z,93780.63
2019-05-17T08:41:00.592Z,93787.41
2019-05-17T08:43:39.887Z,93766.64
2019-05-17T08:46:02.339Z,93772.11
2019-05-17T08:48:30.506Z,93772.04
2019-05-17T08:51:00.119Z,93773.41
2019-05-17T08:53:30.574Z,93776.55
2019-05-17T08:56:00.997Z,93773.97
2019-05-17T08:58:30.197Z,93775.03
2019-05-17T09:01:00.322Z,93770.30
2019-05-17T09:03:30.427Z,93770.05
2019-05-17T09:06:02.283Z,93770.36
2019-05-17T09:08:29.948Z,93767.34
2019-05-17T09:11:00.395Z,93765.64
2019-05-17T09:13:29.825Z,93768.66
2019-05-17T09:16:00.259Z,93766.17
2019-05-17T09:18:30.150Z,93763.73
2019-05-17T09:21:00.312Z,93758.95
2019-05-17T09:23:30.472Z,93763.67
2019-05-17T09:25:59.630Z,93766.77
2019-05-17T09:28:29.994Z,93765.63
2019-05-17T09:30:59.945Z,93766.86
2019-05-17T09:33:30.098Z,93764.77
2019-05-17T09:36:00.781Z,93760.52
2019-05-17T09:38:29.704Z,93760.81
2019-05-17T09:40:59.896Z,93758.48
2019-05-17T09:43:29.565Z,93752.41
2019-05-17T09:46:01.173Z,93755.27
2019-05-17T09:48:30.691Z,93750.83
2019-05-17T09:50:59.909Z,93746.53
2019-05-17T09:53:30.698Z,93745.73
2019-05-17T09:56:00.485Z,93741.89
2019-05-17T09:58:30.048Z,93745.13
2019-05-17T10:01:01.484Z,93744.42
2019-05-17T10:03:30.674Z,93742.05
2019-05-17T10:06:00.131Z,93747.65
2019-05-17T10:08:28.846Z,93741.70
2019-05-17T10:11:05.865Z,93738.63
2019-05-17T10:13:27.980Z,93734.10
2019-05-17T10:15:56.710Z,93740.94
2019-05-17T10:18:25.349Z,93744.30
2019-05-17T10:20:54.059Z,93733.66
2019-05-17T10:23:22.777Z,93741.95
2019-05-17T10:25:51.475Z,93743.84
2019-05-17T10:28:20.643Z,93740.64
2019-05-17T10:30:52.183Z,93739.55
2019-05-17T10:33:20.131Z,93743.84
2019-05-17T10:35:49.706Z,93740.28
2019-05-17T10:38:19.484Z,93736.31
2019-05-17T10:40:50.074Z,93737.75
2019-05-17T10:43:20.476Z,93735.95
2019-05-17T10:45:49.342Z,93735.72
2019-05-17T10:48:20.997Z,93737.50
2019-05-17T10:50:49.720Z,93737.44
2019-05-17T10:53:20.361Z,93736.63
2019-05-17T10:55:49.837Z,93742.58
2019-05-17T10:58:21.176Z,93747.48
2019-05-17T11:00:50.169Z,93734.75
2019-05-17T11:03:20.294Z,93740.45
2019-05-17T11:05:50.238Z,93732.66
2019-05-17T11:08:19.772Z,93721.44
2019-05-17T11:10:50.195Z,93724.25
2019-05-17T11:13:19.018Z,93730.97
2019-05-17T11:15:47.753Z,93730.14
2019-05-17T11:18:16.456Z,93732.62
2019-05-17T11:20:45.452Z,93724.50
2019-05-17T11:23:14.217Z,93736.28
2019-05-17T11:25:45.942Z,93726.38
2019-05-17T11:28:13.318Z,93720.84
2019-05-17T11:30:42.061Z,93713.95
2019-05-17T11:33:10.761Z,93718.13
2019-05-17T11:35:39.464Z,93718.11
2019-05-17T11:38:08.211Z,93721.70
2019-05-17T11:40:36.911Z,93716.73
2019-05-17T11:43:05.815Z,93716.92
2019-05-17T11:45:34.561Z,93712.70
2019-05-17T11:48:03.259Z,93711.51
2019-05-17T11:50:31.954Z,93723.13
2019-05-17T11:53:00.692Z,93711.46
2019-05-17T11:55:29.385Z,93714.98
2019-05-17T11:57:58.079Z,93718.42
2019-05-17T12:00:27.910Z,93705.84
2019-05-17T12:02:56.616Z,93710.33
2019-05-17T12:05:25.418Z,93713.50
2019-05-17T12:07:54.186Z,93723.53
2019-05-17T12:10:22.946Z,93722.78
2019-05-17T12:12:51.667Z,93718.04
2019-05-17T12:15:20.432Z,93709.27
2019-05-17T12:17:49.130Z,93710.81
2019-05-17T12:20:18.143Z,93709.18
2019-05-17T12:22:46.877Z,93709.98
2019-05-17T12:25:15.687Z,93703.48
2019-05-17T12:27:44.385Z,93703.13
2019-05-17T12:30:13.343Z,93700.55
2019-05-17T12:32:42.020Z,93693.38
2019-05-17T12:35:10.669Z,93704.04
2019-05-17T12:37:42.266Z,93700.73
2019-05-17T12:40:11.606Z,93707.30
2019-05-17T12:42:40.227Z,93706.52
2019-05-17T12:45:09.279Z,93703.86
2019-05-17T12:47:37.980Z,93701.73
2019-05-17T12:50:11.060Z,93707.97
2019-05-17T12:52:40.496Z,93702.40
2019-05-17T12:55:09.599Z,93697.08
2019-05-17T12:57:38.293Z,93692.77
2019-05-17T13:00:07.823Z,93689.48
2019-05-17T13:02:36.590Z,93688.48
2019-05-17T13:05:06.207Z,93682.52
2019-05-17T13:07:34.939Z,93686.00
2019-05-17T13:10:05.581Z,93682.39
2019-05-17T13:12:34.284Z,93673.61
2019-05-17T13:15:03.013Z,93668.77
2019-05-17T13:17:31.709Z,93670.88
2019-05-17T13:20:00.405Z,93674.22
2019-05-17T13:22:29.146Z,93675.50
2019-05-17T13:24:57.840Z,93657.25
2019-05-17T13:27:26.561Z,93664.45
2019-05-17T13:29:55.337Z,93657.77
2019-05-17T13:32:24.020Z,93650.27
2019-05-17T13:34:52.717Z,93662.58
2019-05-17T13:37:21.462Z,93664.78
2019-05-17T13:39:50.158Z,93663.88
2019-05-17T13:42:18.856Z,93671.05
2019-05-17T13:44:47.591Z,93664.16
2019-05-17T13:47:16.286Z,93665.37
2019-05-17T13:49:44.986Z,93662.07
2019-05-17T13:52:13.716Z,93664.12
2019-05-17T13:54:42.421Z,93670.91
2019-05-17T13:57:11.555Z,93679.11
2019-05-17T13:59:40.338Z,93668.47
2019-05-17T14:02:09.039Z,93665.28
2019-05-17T14:04:37.755Z,93667.20
2019-05-17T14:07:06.483Z,93684.48
2019-05-17T14:09:35.168Z,93685.56
2019-05-17T14:12:03.872Z,93692.39
2019-05-17T14:14:32.600Z,93690.72
2019-05-17T14:17:01.313Z,93685.30
2019-05-17T14:19:30.002Z,93682.53
2019-05-17T14:21:58.742Z,93693.08
2019-05-17T14:24:27.435Z,93700.66
2019-05-17T14:26:56.057Z,93702.97
2019-05-17T14:29:24.845Z,93718.25
2019-05-17T14:31:53.590Z,93718.50
2019-05-17T14:34:22.281Z,93710.20
2019-05-17T14:36:51.024Z,93710.83
2019-05-17T14:39:19.721Z,93709.16
2019-05-17T14:41:48.415Z,93717.92
2019-05-17T14:44:17.160Z,93735.61
2019-05-17T14:46:45.852Z,93731.77
2019-05-17T14:49:14.481Z,93741.60
2019-05-17T14:51:43.210Z,93733.92
2019-05-17T14:54:11.928Z,93730.66
2019-05-17T14:56:40.602Z,93725.34
2019-05-17T14:59:09.334Z,93740.22
2019-05-17T15:01:38.037Z,93735.86
2019-05-17T15:04:06.768Z,93731.83
2019-05-17T15:06:35.507Z,93737.01
2019-05-17T15:09:05.405Z,93727.01
2019-05-17T15:11:34.025Z,93721.56
2019-05-17T15:14:02.758Z,93719.03
2019-05-17T15:16:31.447Z,93720.11
2019-05-17T15:19:00.148Z,93714.77
2019-05-17T15:21:29.091Z,93721.49
2019-05-17T15:23:57.783Z,93720.57
2019-05-17T15:26:26.475Z,93721.16
2019-05-17T15:28:55.237Z,93716.77
2019-05-17T15:31:23.974Z,93711.83
2019-05-17T15:33:52.662Z,93707.11
2019-05-17T15:36:21.420Z,93699.90
2019-05-17T15:38:50.112Z,93699.42
2019-05-17T15:41:18.818Z,93692.09
2019-05-17T15:43:47.565Z,93687.95
2019-05-17T15:46:16.259Z,93687.39
2019-05-17T15:48:44.953Z,93699.94
2019-05-17T15:51:13.679Z,93706.97
2019-05-17T15:53:42.376Z,93713.32
2019-05-17T15:56:11.077Z,93716.62
2019-05-17T15:58:39.820Z,93706.22
2019-05-17T16:01:08.534Z,93707.05
2019-05-17T16:03:39.556Z,93705.84
2019-05-17T16:06:08.335Z,93708.20
2019-05-17T16:08:37.040Z,93692.67
2019-05-17T16:11:05.740Z,93687.94
2019-05-17T16:13:34.499Z,93689.67
2019-05-17T16:16:03.215Z,93695.17
2019-05-17T16:18:31.906Z,93705.68
2019-05-17T16:21:00.650Z,93719.98
2019-05-17T16:23:29.343Z,93732.34
2019-05-17T16:25:58.046Z,93734.11
2019-05-17T16:28:26.779Z,93726.59
2019-05-17T16:30:55.483Z,93723.11
2019-05-17T16:33:24.179Z,93722.59
2019-05-17T16:35:52.917Z,93719.23
2019-05-17T16:38:21.627Z,93725.97
2019-05-17T16:40:50.324Z,93732.52
2019-05-17T16:43:19.112Z,93729.82
2019-05-17T16:45:47.951Z,93726.91
2019-05-17T16:48:16.642Z,93723.04
2019-05-17T16:50:45.387Z,93732.48
2019-05-17T16:53:14.085Z,93732.39
2019-05-17T16:55:42.777Z,93737.03
2019-05-17T16:58:11.506Z,93731.47
2019-05-17T17:00:42.593Z,93731.41
2019-05-17T17:03:11.263Z,93733.30
2019-05-17T17:05:40.007Z,93733.95
2019-05-17T17:08:08.701Z,93728.48
2019-05-17T17:10:37.413Z,93731.39
2019-05-17T17:13:06.447Z,93737.22
2019-05-17T17:15:35.144Z,93733.61
2019-05-17T17:18:03.885Z,93746.62
2019-05-17T17:20:32.746Z,93750.71
2019-05-17T17:23:01.451Z,93751.72
2019-05-17T17:25:30.132Z,93749.81
2019-05-17T17:27:58.902Z,93745.89
2019-05-17T17:30:27.611Z,93749.30
2019-05-17T17:32:56.299Z,93758.25
2019-05-17T17:35:25.055Z,93756.13
2019-05-17T17:37:54.058Z,93752.36
2019-05-17T17:40:23.373Z,93749.34
2019-05-17T17:42:52.092Z,93756.02
2019-05-17T17:45:23.961Z,93758.86
2019-05-17T17:47:52.678Z,93746.94
2019-05-17T17:50:21.400Z,93755.81
2019-05-17T17:52:51.391Z,93754.28
2019-05-17T17:55:20.313Z,93758.64
2019-05-17T17:57:49.550Z,93750.85
2019-05-17T18:00:19.247Z,93760.27
2019-05-17T18:02:47.944Z,93762.00
2019-05-17T18:05:16.792Z,93767.00
2019-05-17T18:07:45.493Z,93767.01
2019-05-17T18:10:22.634Z,93764.28
2019-05-17T18:12:51.264Z,93766.64
2019-05-17T18:15:22.868Z,93762.95
2019-05-17T18:17:51.617Z,93765.70
2019-05-17T18:20:20.327Z,93769.65
2019-05-17T18:22:49.040Z,93771.31
2019-05-17T18:25:18.621Z,93776.51
2019-05-17T18:27:47.320Z,93773.81
2019-05-17T18:30:16.313Z,93770.71
2019-05-17T18:32:45.043Z,93771.88
2019-05-17T18:35:13.864Z,93766.70
2019-05-17T18:37:42.567Z,93769.60
2019-05-17T18:40:11.571Z,93772.03
2019-05-17T18:42:40.276Z,93770.12
2019-05-17T18:45:09.169Z,93774.39
2019-05-17T18:47:37.844Z,93768.83
2019-05-17T18:50:06.941Z,93770.56
2019-05-17T18:52:35.657Z,93772.50
2019-05-17T18:55:06.411Z,93775.70
2019-05-17T18:57:35.127Z,93777.28
2019-05-17T19:00:03.834Z,93775.92
2019-05-17T19:02:32.569Z,93778.78
2019-05-17T19:05:01.268Z,93784.16
2019-05-17T19:07:29.977Z,93787.88
2019-05-17T19:09:58.731Z,93796.09
2019-05-17T19:12:27.436Z,93794.94
2019-05-17T19:14:56.134Z,93797.41
2019-05-17T19:17:24.880Z,93804.76
2019-05-17T19:19:53.583Z,93803.07
2019-05-17T19:22:22.277Z,93802.81
2019-05-17T19:24:51.009Z,93802.80
2019-05-17T19:27:19.718Z,93817.50
2019-05-17T19:29:49.658Z,93818.84
2019-05-17T19:32:18.399Z,93816.48
2019-05-17T19:34:47.091Z,93819.20
2019-05-17T19:37:15.795Z,93812.48
2019-05-17T19:39:44.529Z,93824.80
2019-05-17T19:42:13.140Z,93826.17
2019-05-17T19:44:41.845Z,93828.69
2019-05-17T19:47:10.577Z,93833.88
2019-05-17T19:49:39.270Z,93835.19
2019-05-17T19:52:07.978Z,93832.05
2019-05-17T19:54:38.152Z,93837.28
2019-05-17T19:57:06.855Z,93838.43
2019-05-17T19:59:35.567Z,93835.23
2019-05-17T20:02:06.549Z,93832.90
2019-05-17T20:04:34.725Z,93828.48
2019-05-17T20:07:03.415Z,93824.61
2019-05-17T20:09:32.151Z,93825.19
2019-05-17T20:12:00.850Z,93820.17
2019-05-17T20:14:29.540Z,93820.03
2019-05-17T20:16:58.280Z,93806.33
2019-05-17T20:19:26.978Z,93808.63
2019-05-17T20:21:55.620Z,93796.30
2019-05-17T20:24:24.364Z,93790.86
2019-05-17T20:26:53.061Z,93786.89
2019-05-17T20:29:21.755Z,93788.92
2019-05-17T20:31:50.525Z,93786.15
2019-05-17T20:34:19.214Z,93786.12
2019-05-17T20:36:47.909Z,93777.10
2019-05-17T20:39:16.643Z,93780.74
2019-05-17T20:41:45.338Z,93780.91
2019-05-17T20:44:14.035Z,93779.80
2019-05-17T20:46:42.760Z,93792.50
2019-05-17T20:49:11.453Z,93778.66
2019-05-17T20:51:40.080Z,93774.22
2019-05-17T20:54:08.807Z,93782.10
2019-05-17T20:56:37.432Z,93775.91
2019-05-17T20:59:06.057Z,93783.98
2019-05-17T21:01:34.799Z,93779.94
2019-05-17T21:04:03.493Z,93774.22
2019-05-17T21:06:32.188Z,93778.64
2019-05-17T21:09:00.919Z,93784.53
2019-05-17T21:11:29.664Z,93791.91
2019-05-17T21:13:58.324Z,93785.01
2019-05-17T21:16:26.995Z,93789.55
2019-05-17T21:18:55.683Z,93790.63
2019-05-17T21:21:24.381Z,93799.64
2019-05-17T21:23:53.121Z,93793.98
2019-05-17T21:26:21.833Z,93791.82
2019-05-17T21:28:50.521Z,93792.19
2019-05-17T21:31:19.254Z,93786.45
2019-05-17T21:33:47.966Z,93788.39
2019-05-17T21:36:16.662Z,93792.16
2019-05-17T21:38:45.398Z,93791.80
2019-05-17T21:41:14.096Z,93795.32
2019-05-17T21:43:42.801Z,93793.19
2019-05-17T21:46:11.532Z,93801.08
2019-05-17T21:48:40.227Z,93799.45
2019-05-17T21:51:08.921Z,93798.41
2019-05-17T21:53:37.711Z,93789.50
2019-05-17T21:56:06.437Z,93795.37
2019-05-17T21:58:35.130Z,93789.89
2019-05-17T22:01:06.774Z,93801.30
2019-05-17T22:03:35.470Z,93799.45
2019-05-17T22:06:04.100Z,93808.92
2019-05-17T22:08:32.867Z,93804.96
2019-05-17T22:11:01.545Z,93809.06
2019-05-17T22:13:30.166Z,93809.48
2019-05-17T22:15:58.895Z,93809.30
2019-05-17T22:18:27.595Z,93807.10
2019-05-17T22:20:56.325Z,93807.72
2019-05-17T22:23:25.037Z,93803.70
2019-05-17T22:25:53.747Z,93804.16
2019-05-17T22:28:22.485Z,93798.06
2019-05-17T22:30:51.223Z,93789.77
2019-05-17T22:33:19.928Z,93791.20
2019-05-17T22:35:48.569Z,93788.05
2019-05-17T22:38:17.295Z,93787.98
2019-05-17T22:40:46.049Z,93788.92
2019-05-17T22:43:14.756Z,93787.88
2019-05-17T22:45:43.437Z,93783.48
2019-05-17T22:48:12.129Z,93777.79
2019-05-17T22:50:40.827Z,93776.22
2019-05-17T22:53:09.569Z,93775.98
2019-05-17T22:55:38.204Z,93763.55
2019-05-17T22:58:06.909Z,93762.41
2019-05-17T23:00:35.613Z,93760.64
2019-05-17T23:03:04.244Z,93748.99
2019-05-17T23:05:32.929Z,93756.61
2019-05-17T23:08:01.721Z,93765.84
2019-05-17T23:10:30.425Z,93758.42
2019-05-17T23:12:59.125Z,93751.20
2019-05-17T23:15:29.435Z,93746.57
2019-05-17T23:17:58.128Z,93752.13
2019-05-17T23:20:26.826Z,93755.76
2019-05-17T23:22:55.565Z,93760.72
2019-05-17T23:25:24.183Z,93763.52
2019-05-17T23:27:52.878Z,93762.48
2019-05-17T23:30:21.634Z,93772.38
2019-05-17T23:32:50.368Z,93778.66
2019-05-17T23:35:18.997Z,93781.42
2019-05-17T23:37:47.722Z,93779.04
2019-05-17T23:40:16.517Z,93787.30
2019-05-17T23:42:45.208Z,93790.53
2019-05-17T23:45:14.345Z,93795.92
2019-05-17T23:47:42.970Z,93797.70
2019-05-17T23:50:11.764Z,93794.24
2019-05-17T23:52:40.604Z,93789.72
2019-05-17T23:55:09.526Z,93791.18
2019-05-17T23:57:38.225Z,93801.05
